createdAt,value
2022-07-31T00:00:20.600Z,59.74
2022-07-31T00:02:46.585Z,59.64
2022-07-31T00:05:12.614Z,60.57
2022-07-31T00:07:38.591Z,60.54
2022-07-31T00:10:04.564Z,60.24
2022-07-31T00:12:30.593Z,60.01
2022-07-31T00:14:56.585Z,60.20
2022-07-31T00:17:22.557Z,59.35
2022-07-31T00:19:48.718Z,58.87
2022-07-31T00:22:15.416Z,59.43
2022-07-31T00:24:42.088Z,59.04
2022-07-31T00:27:08.137Z,58.25
2022-07-31T00:29:34.139Z,58.15
2022-07-31T00:32:00.102Z,57.91
2022-07-31T00:34:26.120Z,58.53
2022-07-31T00:36:52.131Z,58.96
2022-07-31T00:39:18.115Z,60.00
2022-07-31T00:41:44.160Z,59.60
2022-07-31T00:44:12.369Z,59.47
2022-07-31T00:46:38.585Z,59.67
2022-07-31T00:49:06.433Z,60.32
2022-07-31T00:51:32.437Z,59.68
2022-07-31T00:53:58.404Z,59.93
2022-07-31T00:56:25.515Z,60.14
2022-07-31T00:58:51.495Z,60.34
2022-07-31T01:01:17.500Z,59.35
2022-07-31T01:03:43.566Z,59.26
2022-07-31T01:06:09.533Z,59.09
2022-07-31T01:08:35.512Z,60.00
2022-07-31T01:11:01.529Z,60.03
2022-07-31T01:13:27.511Z,60.63
2022-07-31T01:15:53.479Z,60.25
2022-07-31T01:18:19.490Z,60.12
2022-07-31T01:20:45.455Z,59.97
2022-07-31T01:23:11.437Z,60.70
2022-07-31T01:25:37.459Z,59.92
2022-07-31T01:28:03.439Z,60.51
2022-07-31T01:30:30.922Z,61.40
2022-07-31T01:32:57.066Z,61.23
2022-07-31T01:35:23.035Z,61.78
2022-07-31T01:37:49.003Z,61.64
2022-07-31T01:40:15.048Z,61.18
2022-07-31T01:42:41.025Z,60.50
2022-07-31T01:45:07.001Z,60.43
2022-07-31T01:47:33.049Z,60.75
2022-07-31T01:49:59.531Z,60.76
2022-07-31T01:52:25.790Z,60.66
2022-07-31T01:54:51.844Z,60.80
2022-07-31T01:57:18.728Z,61.33
2022-07-31T01:59:46.303Z,61.60
2022-07-31T02:02:12.446Z,61.16
2022-07-31T02:04:38.417Z,61.34
2022-07-31T02:07:04.414Z,62.30
2022-07-31T02:09:30.428Z,61.88
2022-07-31T02:11:56.417Z,62.19
2022-07-31T02:14:22.836Z,62.23
2022-07-31T02:16:48.861Z,62.08
2022-07-31T02:19:14.826Z,61.77
2022-07-31T02:21:40.792Z,61.95
2022-07-31T02:24:06.808Z,62.00
2022-07-31T02:26:32.792Z,62.10
2022-07-31T02:28:58.760Z,61.96
2022-07-31T02:31:26.814Z,62.41
2022-07-31T02:33:53.580Z,62.62
2022-07-31T02:36:19.582Z,62.75
2022-07-31T02:38:45.594Z,62.32
2022-07-31T02:41:11.567Z,62.54
2022-07-31T02:43:37.541Z,61.77
2022-07-31T02:46:03.587Z,61.80
2022-07-31T02:48:29.561Z,61.10
2022-07-31T02:50:55.531Z,60.91
2022-07-31T02:53:21.545Z,60.51
2022-07-31T02:55:47.542Z,60.89
2022-07-31T02:58:13.512Z,61.72
2022-07-31T03:00:39.631Z,61.64
2022-07-31T03:03:05.628Z,61.58
2022-07-31T03:05:31.603Z,61.58
2022-07-31T03:07:58.423Z,61.65
2022-07-31T03:10:25.851Z,61.62
2022-07-31T03:12:51.872Z,61.55
2022-07-31T03:15:17.885Z,61.54
2022-07-31T03:17:43.850Z,61.81
2022-07-31T03:20:09.839Z,61.58
2022-07-31T03:22:35.856Z,62.14
2022-07-31T03:25:01.827Z,61.51
2022-07-31T03:27:27.842Z,61.67
2022-07-31T03:29:53.865Z,61.73
2022-07-31T03:32:19.827Z,61.86
2022-07-31T03:34:46.593Z,62.58
2022-07-31T03:37:13.539Z,62.04
2022-07-31T03:39:40.097Z,62.71
2022-07-31T03:42:06.366Z,62.40
2022-07-31T03:44:40.470Z,62.18
2022-07-31T03:47:06.434Z,62.20
2022-07-31T03:49:32.506Z,61.84
2022-07-31T03:51:58.595Z,62.88
2022-07-31T03:54:24.631Z,62.03
2022-07-31T03:56:50.615Z,62.44
2022-07-31T03:59:16.778Z,61.94
2022-07-31T04:01:57.316Z,61.56
2022-07-31T04:04:24.848Z,62.59
2022-07-31T04:06:50.822Z,62.26
2022-07-31T04:09:18.870Z,62.40
2022-07-31T04:11:45.236Z,63.02
2022-07-31T04:14:11.215Z,62.90
2022-07-31T04:16:37.188Z,63.23
2022-07-31T04:19:03.208Z,63.36
2022-07-31T04:21:29.198Z,62.84
2022-07-31T04:23:55.173Z,62.54
2022-07-31T04:26:26.117Z,62.82
2022-07-31T04:28:52.448Z,61.91
2022-07-31T04:31:18.423Z,62.16
2022-07-31T04:33:47.384Z,62.22
2022-07-31T04:36:29.277Z,61.99
2022-07-31T04:38:56.761Z,62.94
2022-07-31T04:41:25.364Z,62.56
2022-07-31T04:43:52.135Z,61.69
2022-07-31T04:46:18.187Z,62.15
2022-07-31T04:48:44.184Z,61.89
2022-07-31T04:51:11.005Z,62.72
2022-07-31T04:53:40.993Z,61.41
2022-07-31T04:56:06.956Z,60.45
2022-07-31T04:58:32.929Z,60.05
2022-07-31T05:00:58.950Z,59.57
2022-07-31T05:03:25.816Z,59.15
2022-07-31T05:05:53.047Z,59.21
2022-07-31T05:08:19.061Z,58.65
2022-07-31T05:10:45.850Z,58.09
2022-07-31T05:13:11.818Z,58.02
2022-07-31T05:15:37.873Z,57.07
2022-07-31T05:18:03.842Z,58.11
2022-07-31T05:20:29.828Z,57.32
2022-07-31T05:22:55.862Z,58.33
2022-07-31T05:25:23.054Z,57.83
2022-07-31T05:27:50.120Z,59.30
2022-07-31T05:30:16.212Z,59.53
2022-07-31T05:32:42.200Z,59.97
2022-07-31T05:35:08.175Z,59.75
2022-07-31T05:37:35.880Z,60.26
2022-07-31T05:40:01.841Z,58.46
2022-07-31T05:42:27.829Z,58.80
2022-07-31T05:44:53.931Z,56.41
2022-07-31T05:47:19.920Z,55.43
2022-07-31T05:49:45.925Z,54.07
2022-07-31T05:52:11.953Z,53.89
2022-07-31T05:54:37.931Z,53.23
2022-07-31T05:57:03.908Z,51.93
2022-07-31T05:59:29.927Z,52.45
2022-07-31T06:01:55.971Z,52.40
2022-07-31T06:04:22.776Z,52.51
2022-07-31T06:06:49.675Z,51.54
2022-07-31T06:09:15.664Z,50.30
2022-07-31T06:11:42.388Z,49.52
2022-07-31T06:14:09.297Z,50.27
2022-07-31T06:16:35.995Z,49.20
2022-07-31T06:19:01.979Z,49.20
2022-07-31T06:21:30.738Z,49.32
2022-07-31T06:23:57.814Z,49.70
2022-07-31T06:26:26.807Z,47.17
2022-07-31T06:28:53.789Z,48.59
2022-07-31T06:31:19.855Z,46.70
2022-07-31T06:33:48.242Z,45.80
2022-07-31T06:36:14.647Z,46.09
2022-07-31T06:38:40.617Z,45.22
2022-07-31T06:41:06.590Z,46.66
2022-07-31T06:43:32.610Z,46.21
2022-07-31T06:45:58.589Z,45.57
2022-07-31T06:48:24.560Z,44.06
2022-07-31T06:51:08.515Z,44.12
2022-07-31T06:53:39.247Z,42.75
2022-07-31T06:56:05.259Z,42.19
2022-07-31T06:58:31.224Z,42.61
2022-07-31T07:00:57.224Z,41.10
2022-07-31T07:03:24.088Z,40.91
2022-07-31T07:05:50.058Z,42.09
2022-07-31T07:08:16.060Z,41.13
2022-07-31T07:10:42.097Z,40.15
2022-07-31T07:13:08.064Z,39.53
2022-07-31T07:15:34.044Z,40.05
2022-07-31T07:18:00.077Z,41.07
2022-07-31T07:20:26.056Z,41.05
2022-07-31T07:22:52.041Z,40.75
2022-07-31T07:25:18.088Z,40.43
2022-07-31T07:27:44.065Z,40.07
2022-07-31T07:30:10.062Z,41.11
2022-07-31T07:32:36.106Z,39.32
2022-07-31T07:35:02.096Z,39.14
2022-07-31T07:37:28.082Z,38.97
2022-07-31T07:39:54.095Z,40.05
2022-07-31T07:42:20.059Z,37.92
2022-07-31T07:44:46.050Z,38.53
2022-07-31T07:47:12.268Z,38.79
2022-07-31T07:49:39.012Z,40.79
2022-07-31T07:52:05.795Z,38.97
2022-07-31T07:54:31.823Z,39.96
2022-07-31T07:56:57.816Z,39.77
2022-07-31T07:59:25.151Z,38.24
2022-07-31T08:01:51.171Z,37.96
2022-07-31T08:04:17.135Z,37.74
2022-07-31T08:06:43.131Z,37.06
2022-07-31T08:09:09.153Z,36.57
2022-07-31T08:11:35.121Z,36.87
2022-07-31T08:14:01.100Z,37.73
2022-07-31T08:16:27.127Z,37.73
2022-07-31T08:18:53.110Z,38.26
2022-07-31T08:21:19.100Z,37.67
2022-07-31T08:23:45.117Z,37.22
2022-07-31T08:26:11.568Z,37.25
2022-07-31T08:28:39.127Z,36.68
2022-07-31T08:31:05.179Z,37.13
2022-07-31T08:33:31.165Z,37.13
2022-07-31T08:35:57.267Z,37.81
2022-07-31T08:38:26.041Z,38.77
2022-07-31T08:40:52.751Z,37.37
2022-07-31T08:44:00.705Z,36.77
2022-07-31T08:46:05.552Z,35.44
2022-07-31T08:48:32.220Z,36.36
2022-07-31T08:50:58.218Z,36.97
2022-07-31T08:53:25.251Z,35.80
2022-07-31T08:55:56.722Z,36.07
2022-07-31T08:58:24.855Z,34.64
2022-07-31T09:00:51.041Z,36.13
2022-07-31T09:03:17.040Z,35.58
2022-07-31T09:05:43.039Z,34.89
2022-07-31T09:08:14.814Z,35.45
2022-07-31T09:10:43.941Z,34.69
2022-07-31T09:13:15.091Z,34.16
2022-07-31T09:15:41.367Z,35.80
2022-07-31T09:18:07.459Z,35.37
2022-07-31T09:20:34.193Z,34.06
2022-07-31T09:23:00.168Z,34.27
2022-07-31T09:25:26.143Z,34.62
2022-07-31T09:27:52.172Z,35.56
2022-07-31T09:30:18.151Z,34.43
2022-07-31T09:32:44.130Z,35.93
2022-07-31T09:35:10.187Z,34.61
2022-07-31T09:37:36.163Z,33.47
2022-07-31T09:40:02.126Z,34.42
2022-07-31T09:42:28.147Z,33.56
2022-07-31T09:44:54.857Z,33.94
2022-07-31T09:47:20.847Z,32.98
2022-07-31T09:49:47.826Z,35.01
2022-07-31T09:52:14.099Z,33.09
2022-07-31T09:54:40.096Z,31.23
2022-07-31T09:57:06.423Z,34.45
2022-07-31T09:59:32.625Z,34.55
2022-07-31T10:01:58.609Z,33.33
2022-07-31T10:04:25.455Z,33.84
2022-07-31T10:06:51.432Z,33.02
2022-07-31T10:09:17.407Z,32.44
2022-07-31T10:11:43.419Z,33.54
2022-07-31T10:14:09.393Z,31.51
2022-07-31T10:16:35.997Z,31.55
2022-07-31T10:19:02.029Z,31.47
2022-07-31T10:21:28.000Z,31.89
2022-07-31T10:23:53.995Z,32.35
2022-07-31T10:26:20.025Z,32.43
2022-07-31T10:28:45.996Z,32.86
2022-07-31T10:31:11.969Z,31.07
2022-07-31T10:33:45.348Z,32.20
2022-07-31T10:36:11.387Z,31.07
2022-07-31T10:38:38.489Z,30.20
2022-07-31T10:41:05.183Z,30.35
2022-07-31T10:43:31.684Z,31.24
2022-07-31T10:45:58.659Z,30.98
2022-07-31T10:48:25.133Z,30.16
2022-07-31T10:50:51.112Z,28.98
2022-07-31T10:53:17.131Z,29.16
2022-07-31T10:55:43.099Z,29.51
2022-07-31T10:58:09.088Z,30.97
2022-07-31T11:00:35.110Z,29.41
2022-07-31T11:03:01.090Z,28.92
2022-07-31T11:05:27.576Z,29.26
2022-07-31T11:07:54.456Z,28.41
2022-07-31T11:10:21.167Z,28.94
2022-07-31T11:12:47.431Z,28.64
2022-07-31T11:15:13.497Z,29.29
2022-07-31T11:18:22.299Z,29.44
2022-07-31T11:20:25.999Z,29.60
2022-07-31T11:22:52.020Z,28.52
2022-07-31T11:25:17.992Z,28.82
2022-07-31T11:27:44.008Z,28.39
2022-07-31T11:30:13.528Z,30.03
2022-07-31T11:32:39.779Z,29.74
2022-07-31T11:35:05.814Z,28.65
2022-07-31T11:37:46.466Z,27.27
2022-07-31T11:40:17.821Z,28.22
2022-07-31T11:42:43.807Z,28.46
2022-07-31T11:45:12.351Z,27.14
2022-07-31T11:48:10.975Z,31.58
2022-07-31T11:50:25.447Z,27.83
2022-07-31T11:52:51.456Z,27.17
2022-07-31T11:55:17.428Z,27.34
2022-07-31T11:57:51.835Z,27.21
2022-07-31T12:00:26.288Z,27.57
2022-07-31T12:02:53.394Z,27.71
2022-07-31T12:05:19.585Z,25.79
2022-07-31T12:08:04.474Z,26.69
2022-07-31T12:10:31.380Z,26.38
2022-07-31T12:12:59.548Z,27.85
2022-07-31T12:15:26.242Z,27.09
2022-07-31T12:17:52.295Z,28.64
2022-07-31T12:20:29.960Z,27.88
2022-07-31T12:23:00.841Z,29.34
2022-07-31T12:25:26.819Z,27.26
2022-07-31T12:27:52.800Z,28.22
2022-07-31T12:30:18.810Z,29.08
2022-07-31T12:32:45.360Z,29.39
2022-07-31T12:35:11.325Z,29.64
2022-07-31T12:37:37.365Z,28.67
2022-07-31T12:40:03.399Z,28.40
2022-07-31T12:42:30.415Z,29.63
2022-07-31T12:44:57.345Z,29.72
2022-07-31T12:47:26.329Z,27.62
2022-07-31T12:49:52.459Z,29.19
2022-07-31T12:52:19.585Z,29.89
2022-07-31T12:54:45.571Z,28.65
2022-07-31T12:57:11.552Z,29.43
2022-07-31T12:59:37.582Z,28.46
2022-07-31T13:02:04.443Z,29.94
2022-07-31T13:04:31.911Z,29.36
2022-07-31T13:06:58.766Z,28.79
2022-07-31T13:09:25.030Z,28.96
2022-07-31T13:11:55.801Z,29.10
2022-07-31T13:14:25.291Z,29.79
2022-07-31T13:16:51.261Z,29.99
2022-07-31T13:19:17.615Z,31.16
2022-07-31T13:21:49.000Z,30.06
2022-07-31T13:24:16.610Z,32.01
2022-07-31T13:26:42.570Z,29.12
2022-07-31T13:29:08.587Z,28.04
2022-07-31T13:31:34.565Z,29.80
2022-07-31T13:34:00.536Z,29.44
2022-07-31T13:36:26.562Z,29.78
2022-07-31T13:38:52.540Z,29.25
2022-07-31T13:41:18.554Z,28.96
2022-07-31T13:43:59.846Z,28.27
2022-07-31T13:46:26.772Z,27.47
2022-07-31T13:48:52.922Z,26.21
2022-07-31T13:51:19.683Z,27.30
2022-07-31T13:53:51.820Z,26.77
2022-07-31T13:56:39.039Z,27.66
2022-07-31T13:59:06.207Z,27.38
2022-07-31T14:02:02.813Z,26.46
2022-07-31T14:04:23.422Z,27.13
2022-07-31T14:06:51.821Z,26.85
2022-07-31T14:09:18.647Z,27.08
2022-07-31T14:11:44.619Z,26.95
2022-07-31T14:14:11.752Z,25.89
2022-07-31T14:16:38.919Z,27.88
2022-07-31T14:19:05.688Z,27.41
2022-07-31T14:21:32.627Z,30.49
2022-07-31T14:23:58.604Z,29.21
2022-07-31T14:26:25.125Z,28.65
2022-07-31T14:28:51.152Z,29.52
2022-07-31T14:31:17.156Z,29.33
2022-07-31T14:33:43.149Z,29.35
2022-07-31T14:36:09.207Z,31.56
2022-07-31T14:38:35.195Z,29.90
2022-07-31T14:41:01.167Z,30.43
2022-07-31T14:43:27.180Z,32.54
2022-07-31T14:45:53.153Z,30.40
2022-07-31T14:48:19.136Z,30.11
2022-07-31T14:50:45.180Z,30.13
2022-07-31T14:53:11.153Z,29.48
2022-07-31T14:55:37.124Z,30.22
2022-07-31T14:58:03.153Z,30.85
2022-07-31T15:00:29.140Z,30.38
2022-07-31T15:02:55.129Z,30.79
2022-07-31T15:06:51.061Z,30.05
2022-07-31T15:08:07.115Z,29.92
2022-07-31T15:10:33.137Z,31.44
2022-07-31T15:12:59.115Z,30.59
2022-07-31T15:15:26.299Z,30.53
2022-07-31T15:17:55.559Z,29.68
2022-07-31T15:20:21.548Z,29.41
2022-07-31T15:22:58.988Z,30.24
2022-07-31T15:25:28.243Z,29.18
2022-07-31T15:27:54.228Z,30.36
2022-07-31T15:30:20.250Z,29.48
2022-07-31T15:32:46.224Z,31.37
2022-07-31T15:35:12.199Z,30.94
2022-07-31T15:37:38.228Z,30.90
2022-07-31T15:40:04.314Z,30.89
2022-07-31T15:42:30.395Z,29.33
2022-07-31T15:44:56.441Z,29.94
2022-07-31T15:47:22.415Z,30.96
2022-07-31T15:49:48.452Z,30.80
2022-07-31T15:52:14.533Z,30.76
2022-07-31T15:54:46.616Z,32.30
2022-07-31T15:57:12.634Z,32.36
2022-07-31T15:59:38.646Z,30.22
2022-07-31T16:02:05.748Z,30.48
2022-07-31T16:04:31.779Z,30.50
2022-07-31T16:06:57.816Z,31.07
2022-07-31T16:09:25.747Z,30.62
2022-07-31T16:12:05.079Z,31.03
2022-07-31T16:14:31.749Z,30.83
2022-07-31T16:16:57.716Z,30.76
2022-07-31T16:19:23.864Z,32.18
2022-07-31T16:21:49.887Z,32.16
2022-07-31T16:24:15.949Z,32.58
2022-07-31T16:26:49.579Z,34.83
2022-07-31T16:29:17.711Z,33.99
2022-07-31T16:31:44.609Z,34.38
2022-07-31T16:34:11.369Z,34.10
2022-07-31T16:36:38.318Z,32.69
2022-07-31T16:39:19.859Z,34.11
2022-07-31T16:41:54.509Z,34.73
2022-07-31T16:44:21.374Z,34.77
2022-07-31T16:46:52.815Z,35.91
2022-07-31T16:49:31.930Z,35.79
2022-07-31T16:52:03.111Z,35.04
2022-07-31T16:54:29.244Z,34.58
2022-07-31T16:56:55.221Z,34.18
2022-07-31T16:59:21.298Z,33.40
2022-07-31T17:01:57.726Z,33.68
2022-07-31T17:04:27.143Z,34.42
2022-07-31T17:06:53.127Z,35.48
2022-07-31T17:09:19.112Z,34.45
2022-07-31T17:11:45.135Z,34.83
2022-07-31T17:14:11.117Z,35.83
2022-07-31T17:16:37.079Z,34.28
2022-07-31T17:19:05.776Z,33.74
2022-07-31T17:21:31.938Z,35.13
2022-07-31T17:23:58.983Z,35.14
2022-07-31T17:26:25.199Z,36.55
2022-07-31T17:28:55.083Z,34.82
2022-07-31T17:31:21.047Z,37.55
2022-07-31T17:33:54.849Z,35.32
2022-07-31T17:36:25.925Z,36.60
2022-07-31T17:38:52.401Z,36.33
2022-07-31T17:41:24.723Z,34.91
2022-07-31T17:43:53.059Z,35.21
2022-07-31T17:46:28.213Z,36.37
2022-07-31T17:49:00.900Z,35.19
2022-07-31T17:51:26.912Z,35.78
2022-07-31T17:54:00.306Z,36.78
2022-07-31T17:56:26.582Z,37.24
2022-07-31T17:58:52.613Z,37.09
2022-07-31T18:01:18.629Z,37.39
2022-07-31T18:03:44.723Z,37.55
2022-07-31T18:06:10.712Z,37.66
2022-07-31T18:08:36.690Z,37.59
2022-07-31T18:11:02.845Z,37.79
2022-07-31T18:13:28.822Z,38.25
2022-07-31T18:15:54.833Z,37.08
2022-07-31T18:18:21.750Z,37.44
2022-07-31T18:20:47.732Z,38.66
2022-07-31T18:23:14.326Z,39.03
2022-07-31T18:25:40.825Z,39.09
2022-07-31T18:28:07.467Z,39.99
2022-07-31T18:30:35.920Z,40.65
2022-07-31T18:33:04.686Z,41.14
2022-07-31T18:35:30.654Z,40.55
2022-07-31T18:37:57.011Z,41.18
2022-07-31T18:40:26.536Z,41.24
2022-07-31T18:42:52.529Z,41.11
2022-07-31T18:45:18.502Z,42.16
2022-07-31T18:47:47.544Z,42.47
2022-07-31T18:50:59.944Z,42.98
2022-07-31T18:53:00.568Z,43.44
2022-07-31T18:55:26.714Z,42.85
2022-07-31T18:57:55.873Z,43.05
2022-07-31T19:00:25.183Z,42.69
2022-07-31T19:02:51.171Z,44.05
2022-07-31T19:05:21.714Z,43.59
2022-07-31T19:07:48.867Z,44.29
2022-07-31T19:10:29.258Z,44.08
2022-07-31T19:15:47.607Z,44.50
2022-07-31T19:18:15.173Z,43.48
2022-07-31T19:20:58.842Z,43.48
2022-07-31T19:23:27.452Z,43.42
2022-07-31T19:26:02.718Z,44.65
2022-07-31T19:28:30.253Z,45.36
2022-07-31T19:30:56.240Z,44.90
2022-07-31T19:33:22.222Z,44.91
2022-07-31T19:35:58.535Z,44.92
2022-07-31T19:38:26.594Z,44.83
2022-07-31T19:40:53.426Z,45.68
2022-07-31T19:43:20.133Z,45.42
2022-07-31T19:46:00.598Z,45.28
2022-07-31T19:48:33.336Z,45.72
2022-07-31T19:50:59.316Z,45.91
2022-07-31T19:53:26.169Z,45.81
2022-07-31T19:55:52.190Z,45.88
2022-07-31T19:58:18.194Z,45.50
2022-07-31T20:00:44.181Z,45.91
2022-07-31T20:03:10.261Z,46.36
2022-07-31T20:05:36.288Z,46.92
2022-07-31T20:08:02.260Z,47.67
2022-07-31T20:10:28.305Z,47.27
2022-07-31T20:12:54.282Z,46.62
2022-07-31T20:15:20.258Z,46.84
2022-07-31T20:17:47.612Z,46.31
2022-07-31T20:20:15.560Z,46.77
2022-07-31T20:22:42.091Z,46.59
2022-07-31T20:27:58.857Z,46.98
2022-07-31T20:30:24.880Z,46.41
2022-07-31T20:32:50.847Z,46.04
2022-07-31T20:35:35.290Z,46.86
2022-07-31T20:38:03.449Z,46.39
2022-07-31T20:40:29.416Z,46.67
2022-07-31T20:42:55.399Z,46.68
2022-07-31T20:45:21.420Z,46.79
2022-07-31T20:47:47.391Z,46.66
2022-07-31T20:50:13.364Z,46.71
2022-07-31T20:52:39.384Z,46.65
2022-07-31T20:55:05.373Z,46.38
2022-07-31T20:57:31.345Z,46.41
2022-07-31T20:59:57.368Z,47.03
2022-07-31T21:02:23.523Z,46.83
2022-07-31T21:04:50.287Z,47.23
2022-07-31T21:07:16.356Z,48.15
2022-07-31T21:09:42.364Z,47.27
2022-07-31T21:12:08.485Z,47.17
2022-07-31T21:14:35.389Z,47.68
2022-07-31T21:17:01.402Z,47.06
2022-07-31T21:19:27.397Z,47.55
2022-07-31T21:21:53.460Z,48.23
2022-07-31T21:24:19.469Z,47.54
2022-07-31T21:26:45.432Z,48.12
2022-07-31T21:29:11.590Z,47.90
2022-07-31T21:31:37.692Z,47.84
2022-07-31T21:34:15.223Z,48.11
2022-07-31T21:36:41.191Z,48.25
2022-07-31T21:39:07.185Z,47.97
2022-07-31T21:41:38.727Z,47.63
2022-07-31T21:44:08.479Z,48.44
2022-07-31T21:46:38.417Z,48.80
2022-07-31T21:49:04.490Z,48.75
2022-07-31T21:51:30.520Z,48.66
2022-07-31T21:53:56.543Z,48.59
2022-07-31T21:56:22.510Z,49.39
2022-07-31T21:58:48.488Z,49.25
2022-07-31T22:01:14.531Z,49.46
2022-07-31T22:03:40.524Z,50.09
2022-07-31T22:06:06.496Z,50.00
2022-07-31T22:08:32.542Z,49.90
2022-07-31T22:10:58.508Z,50.38
2022-07-31T22:13:24.488Z,49.93
2022-07-31T22:15:59.977Z,50.19
2022-07-31T22:18:26.836Z,50.20
2022-07-31T22:20:53.771Z,50.58
2022-07-31T22:23:20.482Z,50.89
2022-07-31T22:25:46.783Z,50.42
2022-07-31T22:28:13.456Z,50.71
2022-07-31T22:30:40.196Z,50.84
2022-07-31T22:33:06.182Z,50.68
2022-07-31T22:35:32.203Z,50.71
2022-07-31T22:37:58.269Z,50.91
2022-07-31T22:40:24.255Z,51.23
2022-07-31T22:42:56.565Z,52.08
2022-07-31T22:45:24.166Z,51.58
2022-07-31T22:47:50.180Z,51.74
2022-07-31T22:50:16.167Z,51.98
2022-07-31T22:52:42.180Z,51.50
2022-07-31T22:55:08.200Z,52.37
2022-07-31T22:57:34.178Z,52.34
2022-07-31T23:00:00.169Z,52.39
2022-07-31T23:02:26.241Z,52.28
2022-07-31T23:04:52.253Z,51.97
2022-07-31T23:07:18.232Z,52.26
2022-07-31T23:09:44.242Z,51.93
2022-07-31T23:12:10.797Z,52.53
2022-07-31T23:14:37.422Z,51.91
2022-07-31T23:17:03.786Z,52.40
2022-07-31T23:19:29.784Z,53.19
2022-07-31T23:21:55.763Z,53.23
2022-07-31T23:24:21.793Z,52.86
2022-07-31T23:26:47.768Z,54.22
2022-07-31T23:29:13.749Z,52.81
2022-07-31T23:31:39.773Z,52.52
2022-07-31T23:34:05.762Z,52.06
2022-07-31T23:36:31.741Z,52.52
2022-07-31T23:38:57.773Z,52.29
2022-07-31T23:41:23.756Z,52.83
2022-07-31T23:43:54.407Z,52.76
2022-07-31T23:46:24.487Z,53.36
2022-07-31T23:48:53.085Z,52.72
2022-07-31T23:51:19.111Z,52.99
2022-07-31T23:53:47.005Z,52.83
2022-07-31T23:56:19.426Z,52.62
2022-07-31T23:58:45.778Z,53.82
